sensor_id;sensor_type;location;lat;lon;timestamp;P1;durP1;ratioP1;P2;durP2;ratioP2
17618;SDS011;8928;51.678;6.074;2022-07-23T13:31:50;4.05;;;2.20;;
17618;SDS011;8928;51.678;6.074;2022-07-23T13:34:36;4.88;;;1.90;;
17618;SDS011;8928;51.678;6.074;2022-07-23T13:37:23;3.83;;;1.92;;
17618;SDS011;8928;51.678;6.074;2022-07-23T13:40:11;5.55;;;1.88;;
17618;SDS011;8928;51.678;6.074;2022-07-23T13:42:59;3.50;;;2.03;;
17618;SDS011;8928;51.678;6.074;2022-07-23T13:45:46;4.65;;;2.00;;
17618;SDS011;8928;51.678;6.074;2022-07-23T13:48:35;2.30;;;1.80;;
17618;SDS011;8928;51.678;6.074;2022-07-23T13:51:22;4.32;;;1.83;;
17618;SDS011;8928;51.678;6.074;2022-07-23T13:54:09;6.85;;;2.20;;
17618;SDS011;8928;51.678;6.074;2022-07-23T13:56:56;4.20;;;1.85;;
17618;SDS011;8928;51.678;6.074;2022-07-23T13:59:43;4.07;;;1.88;;
17618;SDS011;8928;51.678;6.074;2022-07-23T14:02:30;3.95;;;2.10;;
17618;SDS011;8928;51.678;6.074;2022-07-23T14:05:19;2.72;;;1.83;;
17618;SDS011;8928;51.678;6.074;2022-07-23T14:08:06;5.03;;;1.80;;
17618;SDS011;8928;51.678;6.074;2022-07-23T14:10:54;4.55;;;2.00;;
17618;SDS011;8928;51.678;6.074;2022-07-23T14:13:41;5.68;;;2.15;;
17618;SDS011;8928;51.678;6.074;2022-07-23T14:16:28;4.70;;;2.10;;
17618;SDS011;8928;51.678;6.074;2022-07-23T14:19:15;3.25;;;1.90;;
17618;SDS011;8928;51.678;6.074;2022-07-23T14:22:03;4.13;;;2.00;;
17618;SDS011;8928;51.678;6.074;2022-07-23T14:24:50;3.17;;;2.13;;
17618;SDS011;8928;51.678;6.074;2022-07-23T14:27:38;4.78;;;1.98;;
17618;SDS011;8928;51.678;6.074;2022-07-23T14:30:25;3.55;;;1.98;;
17618;SDS011;8928;51.678;6.074;2022-07-23T14:33:12;3.22;;;2.00;;
17618;SDS011;8928;51.678;6.074;2022-07-23T14:36:00;4.75;;;2.40;;
17618;SDS011;8928;51.678;6.074;2022-07-23T14:38:49;4.97;;;2.20;;
17618;SDS011;8928;51.678;6.074;2022-07-23T14:41:36;5.18;;;2.10;;
17618;SDS011;8928;51.678;6.074;2022-07-23T14:44:23;7.47;;;2.40;;
17618;SDS011;8928;51.678;6.074;2022-07-23T14:47:11;3.65;;;2.20;;
17618;SDS011;8928;51.678;6.074;2022-07-23T14:49:58;3.25;;;2.20;;
17618;SDS011;8928;51.678;6.074;2022-07-23T14:52:45;4.32;;;2.05;;
17618;SDS011;8928;51.678;6.074;2022-07-23T14:55:33;3.80;;;2.30;;
17618;SDS011;8928;51.678;6.074;2022-07-23T14:58:20;6.18;;;2.50;;
17618;SDS011;8928;51.678;6.074;2022-07-23T15:01:08;5.50;;;2.20;;
17618;SDS011;8928;51.678;6.074;2022-07-23T15:03:55;3.65;;;2.20;;
17618;SDS011;8928;51.678;6.074;2022-07-23T15:06:42;3.58;;;2.10;;
17618;SDS011;8928;51.678;6.074;2022-07-23T15:09:30;4.50;;;2.20;;
17618;SDS011;8928;51.678;6.074;2022-07-23T15:12:18;3.38;;;2.13;;
17618;SDS011;8928;51.678;6.074;2022-07-23T15:15:05;7.40;;;2.17;;
17618;SDS011;8928;51.678;6.074;2022-07-23T15:17:53;4.68;;;2.05;;
17618;SDS011;8928;51.678;6.074;2022-07-23T15:20:40;3.15;;;2.10;;
17618;SDS011;8928;51.678;6.074;2022-07-23T15:23:27;5.78;;;2.28;;
17618;SDS011;8928;51.678;6.074;2022-07-23T15:26:15;3.75;;;2.08;;
17618;SDS011;8928;51.678;6.074;2022-07-23T15:29:04;5.93;;;2.25;;
17618;SDS011;8928;51.678;6.074;2022-07-23T15:31:52;5.35;;;2.25;;
17618;SDS011;8928;51.678;6.074;2022-07-23T15:34:39;4.90;;;2.20;;
17618;SDS011;8928;51.678;6.074;2022-07-23T15:37:26;5.97;;;2.30;;
17618;SDS011;8928;51.678;6.074;2022-07-23T15:40:13;3.30;;;2.15;;
17618;SDS011;8928;51.678;6.074;2022-07-23T15:43:00;6.50;;;2.30;;
17618;SDS011;8928;51.678;6.074;2022-07-23T15:45:49;4.20;;;2.10;;
17618;SDS011;8928;51.678;6.074;2022-07-23T15:48:37;5.75;;;2.17;;
17618;SDS011;8928;51.678;6.074;2022-07-23T15:51:24;3.28;;;2.38;;
17618;SDS011;8928;51.678;6.074;2022-07-23T15:54:11;4.07;;;2.20;;
17618;SDS011;8928;51.678;6.074;2022-07-23T15:56:58;4.55;;;2.30;;
17618;SDS011;8928;51.678;6.074;2022-07-23T15:59:45;4.40;;;2.20;;
17618;SDS011;8928;51.678;6.074;2022-07-23T16:02:34;4.03;;;2.40;;
17618;SDS011;8928;51.678;6.074;2022-07-23T16:05:21;4.15;;;2.47;;
17618;SDS011;8928;51.678;6.074;2022-07-23T16:08:17;3.55;;;2.20;;
17618;SDS011;8928;51.678;6.074;2022-07-23T16:11:04;4.35;;;2.45;;
17618;SDS011;8928;51.678;6.074;2022-07-23T16:13:51;5.07;;;2.40;;
17618;SDS011;8928;51.678;6.074;2022-07-23T16:16:39;5.63;;;2.35;;
17618;SDS011;8928;51.678;6.074;2022-07-23T16:19:28;5.35;;;2.40;;
17618;SDS011;8928;51.678;6.074;2022-07-23T16:22:15;5.03;;;2.70;;
17618;SDS011;8928;51.678;6.074;2022-07-23T16:25:02;3.40;;;2.25;;
17618;SDS011;8928;51.678;6.074;2022-07-23T16:27:50;4.75;;;2.60;;
17618;SDS011;8928;51.678;6.074;2022-07-23T16:30:37;3.97;;;2.35;;
17618;SDS011;8928;51.678;6.074;2022-07-23T16:33:24;5.68;;;2.45;;
17618;SDS011;8928;51.678;6.074;2022-07-23T16:36:13;3.70;;;2.30;;
17618;SDS011;8928;51.678;6.074;2022-07-23T16:39:01;4.00;;;2.42;;
17618;SDS011;8928;51.678;6.074;2022-07-23T16:41:49;5.32;;;2.53;;
17618;SDS011;8928;51.678;6.074;2022-07-23T16:44:36;5.45;;;2.55;;
17618;SDS011;8928;51.678;6.074;2022-07-23T16:47:23;6.25;;;2.58;;
17618;SDS011;8928;51.678;6.074;2022-07-23T16:50:10;4.55;;;2.67;;
17618;SDS011;8928;51.678;6.074;2022-07-23T16:52:59;4.95;;;2.70;;
17618;SDS011;8928;51.678;6.074;2022-07-23T16:55:46;5.55;;;2.38;;
17618;SDS011;8928;51.678;6.074;2022-07-23T16:58:33;4.78;;;2.60;;
17618;SDS011;8928;51.678;6.074;2022-07-23T17:01:20;5.13;;;2.70;;
17618;SDS011;8928;51.678;6.074;2022-07-23T17:04:07;3.85;;;2.50;;
17618;SDS011;8928;51.678;6.074;2022-07-23T17:06:54;4.25;;;2.58;;
17618;SDS011;8928;51.678;6.074;2022-07-23T17:09:43;4.78;;;2.38;;
17618;SDS011;8928;51.678;6.074;2022-07-23T17:12:31;6.55;;;2.70;;
17618;SDS011;8928;51.678;6.074;2022-07-23T17:15:18;5.20;;;2.70;;
17618;SDS011;8928;51.678;6.074;2022-07-23T17:18:05;3.85;;;2.65;;
17618;SDS011;8928;51.678;6.074;2022-07-23T17:20:52;4.13;;;2.60;;
17618;SDS011;8928;51.678;6.074;2022-07-23T17:23:39;5.22;;;2.80;;
17618;SDS011;8928;51.678;6.074;2022-07-23T17:26:28;5.90;;;2.70;;
17618;SDS011;8928;51.678;6.074;2022-07-23T17:29:18;4.07;;;2.60;;
17618;SDS011;8928;51.678;6.074;2022-07-23T17:32:05;4.50;;;2.63;;
17618;SDS011;8928;51.678;6.074;2022-07-23T17:34:52;4.38;;;2.45;;
17618;SDS011;8928;51.678;6.074;2022-07-23T17:37:39;4.90;;;2.47;;
17618;SDS011;8928;51.678;6.074;2022-07-23T17:40:27;7.20;;;2.20;;
17618;SDS011;8928;51.678;6.074;2022-07-23T17:43:16;4.45;;;2.10;;
17618;SDS011;8928;51.678;6.074;2022-07-23T17:46:03;6.57;;;2.47;;
17618;SDS011;8928;51.678;6.074;2022-07-23T17:48:51;10.57;;;2.83;;
17618;SDS011;8928;51.678;6.074;2022-07-23T17:51:38;4.90;;;2.70;;
17618;SDS011;8928;51.678;6.074;2022-07-23T17:54:25;5.70;;;2.38;;
17618;SDS011;8928;51.678;6.074;2022-07-23T17:57:13;6.28;;;2.70;;
17618;SDS011;8928;51.678;6.074;2022-07-23T18:00:01;4.10;;;2.50;;
17618;SDS011;8928;51.678;6.074;2022-07-23T18:02:52;7.13;;;2.50;;
17618;SDS011;8928;51.678;6.074;2022-07-23T18:05:39;4.30;;;2.15;;
17618;SDS011;8928;51.678;6.074;2022-07-23T18:08:26;7.70;;;2.70;;
17618;SDS011;8928;51.678;6.074;2022-07-23T18:11:13;6.30;;;2.78;;
17618;SDS011;8928;51.678;6.074;2022-07-23T18:14:00;3.38;;;2.30;;
17618;SDS011;8928;51.678;6.074;2022-07-23T18:16:49;5.07;;;2.70;;
17618;SDS011;8928;51.678;6.074;2022-07-23T18:19:36;5.00;;;2.33;;
17618;SDS011;8928;51.678;6.074;2022-07-23T18:22:23;4.35;;;2.40;;
17618;SDS011;8928;51.678;6.074;2022-07-23T18:25:11;5.47;;;2.38;;
17618;SDS011;8928;51.678;6.074;2022-07-23T18:27:58;9.65;;;2.33;;
17618;SDS011;8928;51.678;6.074;2022-07-23T18:30:45;8.07;;;2.67;;
17618;SDS011;8928;51.678;6.074;2022-07-23T18:33:33;6.90;;;2.30;;
17618;SDS011;8928;51.678;6.074;2022-07-23T18:36:21;7.50;;;2.55;;
17618;SDS011;8928;51.678;6.074;2022-07-23T18:39:08;3.55;;;2.78;;
17618;SDS011;8928;51.678;6.074;2022-07-23T18:41:55;8.25;;;2.80;;
17618;SDS011;8928;51.678;6.074;2022-07-23T18:44:42;8.82;;;2.50;;
17618;SDS011;8928;51.678;6.074;2022-07-23T18:47:29;6.22;;;2.35;;
17618;SDS011;8928;51.678;6.074;2022-07-23T18:50:18;7.60;;;2.53;;
17618;SDS011;8928;51.678;6.074;2022-07-23T18:53:05;7.65;;;2.60;;
17618;SDS011;8928;51.678;6.074;2022-07-23T18:55:52;9.18;;;2.95;;
17618;SDS011;8928;51.678;6.074;2022-07-23T18:58:39;5.18;;;2.65;;
17618;SDS011;8928;51.678;6.074;2022-07-23T19:01:26;4.78;;;2.72;;
17618;SDS011;8928;51.678;6.074;2022-07-23T19:04:15;3.38;;;2.60;;
17618;SDS011;8928;51.678;6.074;2022-07-23T19:07:03;7.10;;;2.60;;
17618;SDS011;8928;51.678;6.074;2022-07-23T19:09:50;3.88;;;2.70;;
17618;SDS011;8928;51.678;6.074;2022-07-23T19:12:38;3.67;;;2.53;;
17618;SDS011;8928;51.678;6.074;2022-07-23T19:15:25;5.28;;;2.88;;
17618;SDS011;8928;51.678;6.074;2022-07-23T19:18:12;3.47;;;2.70;;
17618;SDS011;8928;51.678;6.074;2022-07-23T19:20:59;4.28;;;2.90;;
17618;SDS011;8928;51.678;6.074;2022-07-23T19:23:48;4.65;;;2.90;;
17618;SDS011;8928;51.678;6.074;2022-07-23T19:26:35;4.93;;;2.72;;
17618;SDS011;8928;51.678;6.074;2022-07-23T19:29:22;6.07;;;3.33;;
17618;SDS011;8928;51.678;6.074;2022-07-23T19:32:09;6.18;;;3.03;;
17618;SDS011;8928;51.678;6.074;2022-07-23T19:34:56;8.38;;;3.15;;
17618;SDS011;8928;51.678;6.074;2022-07-23T19:37:43;9.82;;;3.10;;
17618;SDS011;8928;51.678;6.074;2022-07-23T19:40:32;6.72;;;2.92;;
17618;SDS011;8928;51.678;6.074;2022-07-23T19:43:19;6.22;;;2.97;;
17618;SDS011;8928;51.678;6.074;2022-07-23T19:46:06;6.40;;;3.05;;
17618;SDS011;8928;51.678;6.074;2022-07-23T19:48:54;4.30;;;3.10;;
17618;SDS011;8928;51.678;6.074;2022-07-23T19:51:41;6.55;;;3.38;;
17618;SDS011;8928;51.678;6.074;2022-07-23T19:54:28;9.65;;;3.20;;
17618;SDS011;8928;51.678;6.074;2022-07-23T19:57:16;5.18;;;3.30;;
17618;SDS011;8928;51.678;6.074;2022-07-23T20:00:04;5.85;;;3.25;;
17618;SDS011;8928;51.678;6.074;2022-07-23T20:02:53;9.10;;;3.40;;
17618;SDS011;8928;51.678;6.074;2022-07-23T20:05:40;5.03;;;3.17;;
17618;SDS011;8928;51.678;6.074;2022-07-23T20:08:27;4.88;;;3.42;;
17618;SDS011;8928;51.678;6.074;2022-07-23T20:11:14;4.18;;;3.15;;
17618;SDS011;8928;51.678;6.074;2022-07-23T20:14:02;8.68;;;3.33;;
17618;SDS011;8928;51.678;6.074;2022-07-23T20:16:50;8.27;;;3.40;;
17618;SDS011;8928;51.678;6.074;2022-07-23T20:19:37;6.93;;;3.30;;
17618;SDS011;8928;51.678;6.074;2022-07-23T20:22:24;6.00;;;3.60;;
17618;SDS011;8928;51.678;6.074;2022-07-23T20:25:11;8.52;;;3.47;;
17618;SDS011;8928;51.678;6.074;2022-07-23T20:27:58;9.50;;;3.90;;
17618;SDS011;8928;51.678;6.074;2022-07-23T20:30:48;5.10;;;3.90;;
17618;SDS011;8928;51.678;6.074;2022-07-23T20:33:36;11.55;;;5.43;;
17618;SDS011;8928;51.678;6.074;2022-07-23T20:36:24;11.52;;;6.75;;
17618;SDS011;8928;51.678;6.074;2022-07-23T20:39:11;16.50;;;9.82;;
17618;SDS011;8928;51.678;6.074;2022-07-23T20:41:58;23.63;;;15.27;;
17618;SDS011;8928;51.678;6.074;2022-07-23T20:44:45;22.60;;;13.55;;
17618;SDS011;8928;51.678;6.074;2022-07-23T20:47:35;21.98;;;12.02;;
17618;SDS011;8928;51.678;6.074;2022-07-23T20:50:22;16.60;;;10.97;;
17618;SDS011;8928;51.678;6.074;2022-07-23T20:53:10;15.93;;;9.57;;
17618;SDS011;8928;51.678;6.074;2022-07-23T20:55:57;11.37;;;6.90;;
17618;SDS011;8928;51.678;6.074;2022-07-23T20:58:44;11.20;;;6.67;;
17618;SDS011;8928;51.678;6.074;2022-07-23T21:01:32;13.57;;;6.60;;
17618;SDS011;8928;51.678;6.074;2022-07-23T21:04:20;14.33;;;6.90;;
17618;SDS011;8928;51.678;6.074;2022-07-23T21:07:07;8.93;;;6.57;;
17618;SDS011;8928;51.678;6.074;2022-07-23T21:09:54;12.70;;;6.10;;
17618;SDS011;8928;51.678;6.074;2022-07-23T21:12:42;10.00;;;5.47;;
17618;SDS011;8928;51.678;6.074;2022-07-23T21:15:29;9.77;;;5.43;;
17618;SDS011;8928;51.678;6.074;2022-07-23T21:18:16;9.20;;;5.80;;
17618;SDS011;8928;51.678;6.074;2022-07-23T21:21:04;7.90;;;5.17;;
17618;SDS011;8928;51.678;6.074;2022-07-23T21:23:56;11.07;;;5.10;;
17618;SDS011;8928;51.678;6.074;2022-07-23T21:26:43;8.70;;;4.90;;
17618;SDS011;8928;51.678;6.074;2022-07-23T21:29:30;8.13;;;5.03;;
17618;SDS011;8928;51.678;6.074;2022-07-23T21:32:18;7.17;;;4.77;;
17618;SDS011;8928;51.678;6.074;2022-07-23T21:35:05;11.57;;;5.43;;
17618;SDS011;8928;51.678;6.074;2022-07-23T21:37:55;9.13;;;5.10;;
17618;SDS011;8928;51.678;6.074;2022-07-23T21:40:42;8.10;;;5.80;;
17618;SDS011;8928;51.678;6.074;2022-07-23T21:43:29;10.70;;;5.80;;
17618;SDS011;8928;51.678;6.074;2022-07-23T21:46:16;11.47;;;6.57;;
17618;SDS011;8928;51.678;6.074;2022-07-23T21:49:04;10.47;;;6.80;;
17618;SDS011;8928;51.678;6.074;2022-07-23T21:51:52;15.33;;;7.07;;
17618;SDS011;8928;51.678;6.074;2022-07-23T21:54:40;12.23;;;7.00;;
17618;SDS011;8928;51.678;6.074;2022-07-23T21:57:27;14.50;;;6.67;;
17618;SDS011;8928;51.678;6.074;2022-07-23T22:00:16;13.03;;;6.50;;
17618;SDS011;8928;51.678;6.074;2022-07-23T22:03:07;10.13;;;6.27;;
17618;SDS011;8928;51.678;6.074;2022-07-23T22:05:55;9.90;;;6.10;;
17618;SDS011;8928;51.678;6.074;2022-07-23T22:08:42;12.47;;;6.40;;
17618;SDS011;8928;51.678;6.074;2022-07-23T22:11:31;14.07;;;6.40;;
17618;SDS011;8928;51.678;6.074;2022-07-23T22:14:18;9.70;;;6.23;;
17618;SDS011;8928;51.678;6.074;2022-07-23T22:17:05;9.17;;;6.20;;
17618;SDS011;8928;51.678;6.074;2022-07-23T22:19:52;10.90;;;6.03;;
17618;SDS011;8928;51.678;6.074;2022-07-23T22:22:40;11.93;;;6.30;;
17618;SDS011;8928;51.678;6.074;2022-07-23T22:25:28;10.40;;;6.73;;
17618;SDS011;8928;51.678;6.074;2022-07-23T22:28:16;10.80;;;6.53;;
17618;SDS011;8928;51.678;6.074;2022-07-23T22:31:03;8.93;;;6.00;;
17618;SDS011;8928;51.678;6.074;2022-07-23T22:33:51;14.20;;;6.53;;
17618;SDS011;8928;51.678;6.074;2022-07-23T22:36:38;10.93;;;6.30;;
17618;SDS011;8928;51.678;6.074;2022-07-23T22:39:25;10.33;;;6.47;;
17618;SDS011;8928;51.678;6.074;2022-07-23T22:42:12;12.37;;;6.90;;
17618;SDS011;8928;51.678;6.074;2022-07-23T22:45:01;10.93;;;6.97;;
17618;SDS011;8928;51.678;6.074;2022-07-23T22:47:48;10.67;;;7.00;;
17618;SDS011;8928;51.678;6.074;2022-07-23T22:50:35;13.77;;;7.87;;
17618;SDS011;8928;51.678;6.074;2022-07-23T22:53:22;10.27;;;7.07;;
17618;SDS011;8928;51.678;6.074;2022-07-23T22:56:09;13.23;;;7.03;;
17618;SDS011;8928;51.678;6.074;2022-07-23T22:58:56;11.10;;;6.87;;
17618;SDS011;8928;51.678;6.074;2022-07-23T23:01:45;12.17;;;7.07;;
17618;SDS011;8928;51.678;6.074;2022-07-23T23:04:32;11.63;;;7.30;;
17618;SDS011;8928;51.678;6.074;2022-07-23T23:07:19;10.43;;;7.40;;
17618;SDS011;8928;51.678;6.074;2022-07-23T23:10:06;13.03;;;7.30;;
17618;SDS011;8928;51.678;6.074;2022-07-23T23:12:54;13.47;;;7.23;;
17618;SDS011;8928;51.678;6.074;2022-07-23T23:15:41;9.63;;;6.97;;
17618;SDS011;8928;51.678;6.074;2022-07-23T23:18:29;14.60;;;7.53;;
17618;SDS011;8928;51.678;6.074;2022-07-23T23:21:16;12.33;;;7.10;;
17618;SDS011;8928;51.678;6.074;2022-07-23T23:24:04;14.77;;;7.60;;
17618;SDS011;8928;51.678;6.074;2022-07-23T23:26:51;13.17;;;8.00;;
17618;SDS011;8928;51.678;6.074;2022-07-23T23:29:38;11.37;;;7.80;;
17618;SDS011;8928;51.678;6.074;2022-07-23T23:32:25;13.03;;;7.63;;
17618;SDS011;8928;51.678;6.074;2022-07-23T23:35:14;12.23;;;7.97;;
17618;SDS011;8928;51.678;6.074;2022-07-23T23:38:01;11.53;;;7.60;;
17618;SDS011;8928;51.678;6.074;2022-07-23T23:40:48;17.27;;;7.63;;
17618;SDS011;8928;51.678;6.074;2022-07-23T23:43:35;12.50;;;7.73;;
17618;SDS011;8928;51.678;6.074;2022-07-23T23:46:22;12.90;;;8.47;;
17618;SDS011;8928;51.678;6.074;2022-07-23T23:49:09;11.37;;;8.03;;
17618;SDS011;8928;51.678;6.074;2022-07-23T23:51:58;15.93;;;8.40;;
17618;SDS011;8928;51.678;6.074;2022-07-23T23:54:45;13.27;;;8.33;;
17618;SDS011;8928;51.678;6.074;2022-07-23T23:57:32;15.70;;;8.07;;
